Time;durP1;ratioP1;P1;durP2;ratioP2;P2;SDS_P1;SDS_P2;PMS_P1;PMS_P2;Temp;Humidity;BMP_temperature;BMP_pressure;BME280_temperature;BME280_humidity;BME280_pressure;Samples;Min_cycle;Max_cycle;Signal;HPM_P1;HPM_P2
2023/01/03 00:01:10;;;;;;;6.30;2.33;;;8.70;99.90;;;;;;5029444;28;21001;-65
2023/01/03 00:03:36;;;;;;;3.33;2.97;;;8.70;99.90;;;;;;5028613;28;20326;-66
2023/01/03 00:06:03;;;;;;;;;;;8.70;99.90;;;;;;5028630;28;20068;-66
2023/01/03 00:08:30;;;;;;;7.53;2.72;;;8.70;99.90;;;;;;5028406;28;20014;-65
2023/01/03 00:10:57;;;;;;;;;;;8.60;99.90;;;;;;5027962;28;20586;-65
2023/01/03 00:13:23;;;;;;;6.18;2.45;;;8.60;99.90;;;;;;5034202;28;19925;-66
2023/01/03 00:15:50;;;;;;;;;;;8.60;99.90;;;;;;5038982;28;20037;-65
2023/01/03 00:18:20;;;;;;;3.28;2.47;;;8.50;99.90;;;;;;5033282;28;19932;-67
2023/01/03 00:20:48;;;;;;;10.93;2.72;;;8.50;99.90;;;;;;5031141;28;20353;-66
2023/01/03 00:23:14;;;;;;;7.53;2.55;;;8.50;99.90;;;;;;5030457;28;20039;-66
2023/01/03 00:25:41;;;;;;;5.18;3.22;;;8.50;99.90;;;;;;5033267;28;20052;-65
2023/01/03 00:28:08;;;;;;;;;;;8.50;99.90;;;;;;5031441;28;20474;-65
2023/01/03 00:30:34;;;;;;;8.23;2.75;;;8.40;99.90;;;;;;5020046;28;19930;-65
2023/01/03 00:33:02;;;;;;;8.18;3.08;;;8.40;99.90;;;;;;5033573;28;20138;-65
2023/01/03 00:35:29;;;;;;;4.78;2.72;;;8.40;99.90;;;;;;5034024;28;20062;-65
2023/01/03 00:37:56;;;;;;;5.32;2.80;;;8.40;99.90;;;;;;5030483;28;20048;-65
2023/01/03 00:40:23;;;;;;;;;;;8.40;99.90;;;;;;5031215;28;20045;-65
2023/01/03 00:45:45;;;;;;;4.07;2.28;;;8.40;99.90;;;;;;5011462;28;20824;-65
2023/01/03 00:48:12;;;;;;;5.00;2.95;;;8.40;99.90;;;;;;5027718;28;20737;-65
2023/01/03 00:50:39;;;;;;;;;;;8.30;99.90;;;;;;5029633;28;20053;-65
2023/01/03 00:53:05;;;;;;;5.03;2.10;;;8.30;99.90;;;;;;5027621;28;19933;-66
2023/01/03 00:55:33;;;;;;;5.88;2.53;;;8.30;99.90;;;;;;5013472;28;20050;-65
2023/01/03 00:58:00;;;;;;;3.17;1.88;;;8.30;99.90;;;;;;5028330;28;20554;-65
2023/01/03 01:00:27;;;;;;;;;;;8.30;99.90;;;;;;5027398;28;20134;-65
2023/01/03 01:02:54;;;;;;;3.90;2.13;;;8.30;99.90;;;;;;5027039;28;19925;-65
2023/01/03 01:05:21;;;;;;;5.70;1.95;;;8.20;99.90;;;;;;5029716;28;20219;-66
2023/01/03 01:07:48;;;;;;;;;;;8.20;99.90;;;;;;5027311;28;20057;-66
2023/01/03 01:10:18;;;;;;;3.92;1.70;;;8.20;99.90;;;;;;5029306;28;20158;-66
2023/01/03 01:12:46;;;;;;;3.05;1.63;;;8.20;99.90;;;;;;5027927;28;20126;-69
2023/01/03 01:15:13;;;;;;;3.88;1.75;;;8.10;99.90;;;;;;5030232;28;20509;-65
2023/01/03 01:17:40;;;;;;;2.42;1.40;;;8.10;99.90;;;;;;5030790;28;20286;-66
2023/01/03 01:20:07;;;;;;;2.03;1.20;;;8.10;99.90;;;;;;5028727;28;20059;-65
2023/01/03 01:22:34;;;;;;;3.85;1.30;;;8.00;99.90;;;;;;5028108;28;20045;-66
2023/01/03 01:25:01;;;;;;;;;;;8.00;99.90;;;;;;5027218;28;20132;-66
2023/01/03 01:27:28;;;;;;;3.85;1.15;;;8.00;99.90;;;;;;5029513;28;19986;-65
2023/01/03 01:29:54;;;;;;;2.47;1.15;;;8.00;99.90;;;;;;5030134;28;20223;-66
2023/01/03 01:32:21;;;;;;;;;;;8.00;99.90;;;;;;5030005;28;20129;-66
2023/01/03 01:34:48;;;;;;;3.33;1.40;;;8.00;99.90;;;;;;5032663;28;19929;-66
2023/01/03 01:37:15;;;;;;;1.38;1.25;;;8.00;99.90;;;;;;5027162;28;20077;-66
2023/01/03 01:39:42;;;;;;;1.88;1.60;;;8.00;99.90;;;;;;5027827;28;20044;-66
2023/01/03 01:45:00;;;;;;;1.52;1.33;;;8.00;99.90;;;;;;5025403;28;20052;-65
2023/01/03 01:47:35;;;;;;;3.47;1.65;;;8.00;99.90;;;;;;5030397;28;20067;-65
2023/01/03 01:50:15;;;;;;;4.07;2.13;;;7.90;99.90;;;;;;5028904;28;20045;-65
2023/01/03 01:52:54;;;;;;;4.25;1.80;;;7.90;99.90;;;;;;5032666;28;20047;-65
2023/01/03 01:55:29;;;;;;;5.20;2.13;;;7.90;99.90;;;;;;5026953;28;20036;-65
2023/01/03 01:57:56;;;;;;;4.75;2.05;;;7.90;99.90;;;;;;5026813;28;20067;-64
2023/01/03 02:00:23;;;;;;;3.05;1.80;;;7.90;99.90;;;;;;5026791;28;20045;-65
2023/01/03 02:02:51;;;;;;;;;;;7.90;99.90;;;;;;5026122;28;20127;-65
2023/01/03 02:05:19;;;;;;;4.38;2.38;;;7.90;99.90;;;;;;5012312;28;19924;-65
2023/01/03 02:07:50;;;;;;;3.15;2.35;;;7.80;99.90;;;;;;5026382;28;20144;-65
2023/01/03 02:10:29;;;;;;;4.88;2.40;;;7.80;99.90;;;;;;5028309;28;20040;-65
2023/01/03 02:13:05;;;;;;;7.15;2.10;;;7.80;99.90;;;;;;5028073;28;21008;-64
2023/01/03 02:15:43;;;;;;;5.03;1.98;;;7.80;99.90;;;;;;5028423;28;20988;-65
2023/01/03 02:18:22;;;;;;;2.85;1.80;;;7.80;99.90;;;;;;5029250;28;20056;-65
2023/01/03 02:21:16;;;;;;;8.80;1.95;;;7.80;99.90;;;;;;5013970;28;20103;-65
2023/01/03 02:24:18;;;;;;;4.10;1.52;;;7.70;99.90;;;;;;5029502;28;20068;-65
2023/01/03 02:27:05;;;;;;;2.67;1.73;;;7.70;99.90;;;;;;4998002;28;20119;-65
2023/01/03 02:30:09;;;;;;;4.47;1.43;;;7.70;99.90;;;;;;5029849;28;20760;-64
2023/01/03 02:32:54;;;;;;;6.10;1.75;;;7.60;99.90;;;;;;5028870;28;20522;-65
2023/01/03 02:35:36;;;;;;;7.35;1.75;;;7.60;99.90;;;;;;5026294;28;20044;-65
2023/01/03 02:38:12;;;;;;;2.50;1.08;;;7.50;99.90;;;;;;5025386;28;20120;-65
2023/01/03 02:40:45;;;;;;;2.92;1.45;;;7.50;99.90;;;;;;5026744;28;20128;-65
2023/01/03 02:43:28;;;;;;;4.95;1.60;;;7.50;99.90;;;;;;5027386;28;20148;-64
2023/01/03 02:45:58;;;;;;;2.75;1.60;;;7.40;99.90;;;;;;5026933;28;20045;-64
2023/01/03 02:48:50;;;;;;;6.93;1.42;;;7.40;99.90;;;;;;5024599;28;20088;-64
2023/01/03 02:51:27;;;;;;;3.20;1.20;;;7.40;99.90;;;;;;5015109;28;20692;-64
2023/01/03 02:53:57;;;;;;;1.48;1.10;;;7.40;99.90;;;;;;5025338;28;20659;-64
2023/01/03 02:56:31;;;;;;;2.28;1.45;;;7.30;99.90;;;;;;5028798;28;20100;-66
2023/01/03 02:59:06;;;;;;;2.65;1.55;;;7.40;99.90;;;;;;5026115;28;20527;-65
2023/01/03 03:01:34;;;;;;;2.45;1.40;;;7.40;99.90;;;;;;5029396;28;20604;-64
2023/01/03 03:04:05;;;;;;;4.95;1.52;;;7.30;99.90;;;;;;5032005;28;20131;-65
2023/01/03 03:06:38;;;;;;;5.43;1.90;;;7.40;99.90;;;;;;5017786;28;20063;-65
2023/01/03 03:09:04;;;;;;;3.40;1.83;;;7.40;99.90;;;;;;5026853;28;20136;-65
2023/01/03 03:14:26;;;;;;;5.38;2.58;;;7.30;99.90;;;;;;5027951;28;20102;-66
2023/01/03 03:16:58;;;;;;;5.60;3.13;;;7.30;99.90;;;;;;5025261;28;20309;-65
2023/01/03 03:25:42;;;;;;;2.90;1.60;;;7.30;99.90;;;;;;5032347;28;20045;-65
2023/01/03 03:31:07;;;;;;;2.17;1.67;;;7.30;99.90;;;;;;5029663;28;20670;-64
2023/01/03 03:33:56;;;;;;;2.43;1.63;;;7.30;99.90;;;;;;5030196;28;20049;-65
2023/01/03 03:36:42;;;;;;;1.88;1.50;;;7.30;99.90;;;;;;5016916;28;20056;-65
2023/01/03 03:44:59;;;;;;;4.75;1.80;;;7.30;99.90;;;;;;5031601;28;20488;-65
2023/01/03 03:45:14;;;;;;;2.45;2.03;;;7.30;99.90;;;;;;5031016;28;20505;-64
2023/01/03 03:47:47;;;;;;;3.40;1.52;;;7.30;99.90;;;;;;5027407;28;21146;-66
2023/01/03 03:50:34;;;;;;;3.80;1.52;;;7.30;99.90;;;;;;5027262;28;20090;-66
2023/01/03 03:53:05;;;;;;;2.38;1.40;;;7.30;99.90;;;;;;5033764;28;20053;-67
2023/01/03 03:55:56;;;;;;;3.40;1.48;;;7.30;99.90;;;;;;5032989;28;20045;-64
2023/01/03 03:58:41;;;;;;;4.78;1.25;;;7.20;99.90;;;;;;5032019;28;20385;-65
2023/01/03 04:01:13;;;;;;;2.28;1.38;;;7.30;99.90;;;;;;5027393;28;20044;-65
2023/01/03 04:03:42;;;;;;;2.10;1.10;;;7.30;99.90;;;;;;5031772;28;20048;-67
2023/01/03 04:06:19;;;;;;;1.52;1.17;;;7.30;99.90;;;;;;5029561;28;20103;-65
2023/01/03 04:08:46;;;;;;;2.55;1.20;;;7.30;99.90;;;;;;5032250;28;20863;-65
2023/01/03 04:11:13;;;;;;;2.92;1.70;;;7.30;99.90;;;;;;5034894;28;20170;-66
2023/01/03 04:13:39;;;;;;;;;;;7.30;99.90;;;;;;5033059;28;20111;-64
2023/01/03 04:16:06;;;;;;;2.00;1.25;;;7.30;99.90;;;;;;5016179;28;19925;-65
2023/01/03 04:18:34;;;;;;;5.75;1.13;;;7.30;99.90;;;;;;5029884;28;20107;-65
2023/01/03 04:21:01;;;;;;;3.50;1.30;;;7.30;99.90;;;;;;5032056;28;20049;-67
2023/01/03 04:23:27;;;;;;;3.03;1.67;;;7.20;99.90;;;;;;5032937;28;20083;-65
2023/01/03 04:25:54;;;;;;;;;;;7.30;99.90;;;;;;5032589;28;20052;-65
2023/01/03 04:28:21;;;;;;;2.10;1.63;;;7.30;99.90;;;;;;5031699;28;19928;-64
2023/01/03 04:30:48;;;;;;;2.47;2.05;;;7.30;99.90;;;;;;5016336;28;20045;-64
2023/01/03 04:33:14;;;;;;;6.30;3.97;;;7.30;99.90;;;;;;5013830;28;20512;-66
2023/01/03 04:35:41;;;;;;;8.60;5.40;;;7.30;99.90;;;;;;5032698;28;20604;-65
2023/01/03 04:38:09;;;;;;;8.27;5.15;;;7.30;99.90;;;;;;5031916;28;20053;-65
2023/01/03 04:40:39;;;;;;;9.68;5.35;;;7.30;99.90;;;;;;5031911;28;20050;-65
2023/01/03 04:45:52;;;;;;;6.00;4.78;;;7.30;99.90;;;;;;5031527;28;20049;-64
2023/01/03 04:48:18;;;;;;;;;;;7.30;99.90;;;;;;5034609;28;20044;-65
2023/01/03 04:50:57;;;;;;;4.18;3.75;;;7.30;99.90;;;;;;5029294;28;19929;-65
2023/01/03 04:53:25;;;;;;;7.50;4.10;;;7.30;99.90;;;;;;5031511;28;20136;-64
2023/01/03 04:55:55;;;;;;;4.90;3.72;;;7.30;99.90;;;;;;5032011;28;21017;-65
2023/01/03 04:58:22;;;;;;;6.13;4.30;;;7.40;99.90;;;;;;5032126;28;20129;-65
2023/01/03 05:00:49;;;;;;;4.65;3.53;;;7.40;99.90;;;;;;5028323;28;20127;-65
2023/01/03 05:03:16;;;;;;;7.13;3.10;;;7.40;99.90;;;;;;5029012;28;20059;-65
2023/01/03 05:05:51;;;;;;;3.85;2.80;;;7.40;99.90;;;;;;5028746;28;20059;-65
2023/01/03 05:08:18;;;;;;;;;;;7.40;99.90;;;;;;5027102;28;20044;-65
2023/01/03 05:10:44;;;;;;;5.10;2.60;;;7.40;99.90;;;;;;5026190;28;20058;-65
2023/01/03 05:13:13;;;;;;;4.13;2.55;;;7.30;99.90;;;;;;5033359;28;20036;-65
2023/01/03 05:15:40;;;;;;;;;;;7.30;99.90;;;;;;5016130;28;20040;-65
2023/01/03 05:18:06;;;;;;;11.20;3.47;;;7.30;99.90;;;;;;5029044;28;19956;-66
2023/01/03 05:26:19;;;;;;;2.65;2.13;;;7.30;99.90;;;;;;5027081;28;20127;-65
2023/01/03 05:28:50;;;;;;;7.32;2.65;;;7.30;99.90;;;;;;5031144;28;20059;-65
2023/01/03 05:31:17;;;;;;;3.33;2.30;;;7.30;99.90;;;;;;5029032;28;20037;-52
2023/01/03 05:33:44;;;;;;;4.35;2.60;;;7.30;99.90;;;;;;5011922;28;20063;-53
2023/01/03 05:36:11;;;;;;;2.65;2.15;;;7.30;99.90;;;;;;5032920;28;20036;-53
2023/01/03 05:38:37;;;;;;;;;;;7.30;99.90;;;;;;5029450;28;20045;-52
2023/01/03 05:41:04;;;;;;;3.58;2.60;;;7.30;99.90;;;;;;5031420;28;19975;-55
2023/01/03 05:43:31;;;;;;;3.03;2.72;;;7.30;99.90;;;;;;5031246;28;20056;-53
2023/01/03 05:45:58;;;;;;;3.05;2.30;;;7.20;99.90;;;;;;5027279;28;20759;-52
2023/01/03 05:48:25;;;;;;;2.45;1.80;;;7.20;99.90;;;;;;5028424;28;20740;-53
2023/01/03 05:50:54;;;;;;;;;;;7.20;99.90;;;;;;5028419;28;20922;-54
2023/01/03 05:53:21;;;;;;;3.83;2.28;;;7.20;99.90;;;;;;5015602;28;19929;-55
2023/01/03 05:55:48;;;;;;;4.75;2.40;;;7.20;99.90;;;;;;5027670;28;20049;-53
2023/01/03 05:58:15;;;;;;;;;;;7.20;99.90;;;;;;5028553;28;20072;-55
2023/01/03 06:00:42;;;;;;;3.55;2.58;;;7.20;99.90;;;;;;5027803;28;19952;-54
2023/01/03 06:03:09;;;;;;;;;;;7.20;99.90;;;;;;5027913;28;20037;-54
2023/01/03 06:05:35;;;;;;;3.22;2.40;;;7.20;99.90;;;;;;5014852;28;20692;-54
2023/01/03 06:08:02;;;;;;;3.28;2.30;;;7.20;99.90;;;;;;5030016;28;20975;-54
2023/01/03 06:10:29;;;;;;;;;;;7.20;99.90;;;;;;5025688;28;21104;-53
2023/01/03 06:12:56;;;;;;;4.97;2.90;;;7.20;99.90;;;;;;5029981;28;19956;-54
2023/01/03 06:15:23;;;;;;;;;;;7.20;99.90;;;;;;5026715;28;20911;-53
2023/01/03 06:18:01;;;;;;;4.68;3.35;;;7.20;99.90;;;;;;5028139;28;19975;-53
2023/01/03 06:20:28;;;;;;;4.35;3.72;;;7.20;99.90;;;;;;5014016;28;20076;-52
2023/01/03 06:22:56;;;;;;;3.90;3.50;;;7.20;99.90;;;;;;5025444;28;20138;-54
2023/01/03 06:25:23;;;;;;;6.00;4.78;;;7.20;99.90;;;;;;5026469;28;20056;-56
2023/01/03 06:27:50;;;;;;;6.82;4.55;;;7.20;99.90;;;;;;5026666;28;20707;-54
2023/01/03 06:30:17;;;;;;;7.45;5.07;;;7.20;99.90;;;;;;5028090;28;20049;-53
2023/01/03 06:32:44;;;;;;;8.90;5.15;;;7.20;99.90;;;;;;4995297;28;20045;-54
2023/01/03 06:35:11;;;;;;;7.60;5.55;;;7.30;99.90;;;;;;5028442;28;20051;-60
2023/01/03 06:37:38;;;;;;;7.30;5.60;;;7.30;99.90;;;;;;5026627;28;20118;-53
2023/01/03 06:40:05;;;;;;;;;;;7.30;99.90;;;;;;5031943;28;20052;-53
2023/01/03 06:42:41;;;;;;;9.38;7.15;;;7.30;99.90;;;;;;5028043;28;20467;-52
2023/01/03 06:53:35;;;;;;;9.88;6.80;;;7.30;99.90;;;;;;5026196;28;20091;-53
2023/01/03 06:56:03;;;;;;;8.90;7.50;;;7.30;99.90;;;;;;5026353;28;20437;-53
2023/01/03 06:58:29;;;;;;;12.68;7.95;;;7.30;99.90;;;;;;5026812;28;20080;-53
2023/01/03 07:00:57;;;;;;;;;;;7.30;99.90;;;;;;5027577;28;20049;-53
2023/01/03 07:03:24;;;;;;;12.13;8.60;;;7.30;99.90;;;;;;5026647;28;20433;-54
2023/01/03 07:05:50;;;;;;;;;;;7.40;99.90;;;;;;5025661;28;20162;-54
2023/01/03 07:08:18;;;;;;;11.13;7.07;;;7.30;99.90;;;;;;5027421;28;20406;-54
2023/01/03 07:10:45;;;;;;;;;;;7.30;99.90;;;;;;5027249;28;20139;-54
2023/01/03 07:15:57;;;;;;;3.70;3.35;;;7.30;99.90;;;;;;5025144;28;20537;-54
2023/01/03 07:18:27;;;;;;;;;;;7.30;99.90;;;;;;5027952;28;20073;-51
2023/01/03 07:20:54;;;;;;;3.20;2.63;;;7.30;99.90;;;;;;5027081;28;20426;-54
2023/01/03 07:23:20;;;;;;;;;;;7.30;99.90;;;;;;5025453;28;21043;-54
2023/01/03 07:25:47;;;;;;;4.30;2.58;;;7.20;99.90;;;;;;5011379;28;19931;-53
2023/01/03 07:28:14;;;;;;;;;;;7.20;99.90;;;;;;5024896;28;20137;-53
2023/01/03 07:30:44;;;;;;;3.65;3.08;;;7.20;99.90;;;;;;5023976;28;20774;-54
2023/01/03 07:33:14;;;;;;;5.13;3.47;;;7.20;99.90;;;;;;5029216;28;20531;-52
2023/01/03 07:35:41;;;;;;;9.10;5.38;;;7.20;99.90;;;;;;5025417;28;20794;-54
2023/01/03 07:38:09;;;;;;;8.50;6.47;;;7.10;99.90;;;;;;5026313;28;20053;-53
2023/01/03 07:40:36;;;;;;;7.82;5.38;;;7.20;99.90;;;;;;5025631;28;20045;-52
2023/01/03 07:45:48;;;;;;;6.22;4.88;;;7.10;99.90;;;;;;5027651;28;20543;-52
2023/01/03 07:48:15;;;;;;;8.82;5.38;;;7.10;99.90;;;;;;5026122;28;20049;-49
2023/01/03 07:50:42;;;;;;;;;;;7.10;99.90;;;;;;5027073;28;20040;-50
2023/01/03 07:53:15;;;;;;;8.98;4.90;;;7.10;99.90;;;;;;5028155;28;20724;-50
2023/01/03 07:55:44;;;;;;;9.85;5.60;;;7.10;99.90;;;;;;5025993;28;20037;-48
2023/01/03 07:58:11;;;;;;;5.93;4.75;;;7.10;99.90;;;;;;5030102;28;20051;-48
2023/01/03 08:00:39;;;;;;;5.78;4.43;;;7.10;99.90;;;;;;5026555;28;20078;-52
2023/01/03 08:03:05;;;;;;;6.80;4.57;;;7.10;99.90;;;;;;5025073;28;20045;-51
2023/01/03 08:05:37;;;;;;;7.78;4.70;;;7.10;99.90;;;;;;5024120;28;20040;-53
2023/01/03 08:08:04;;;;;;;7.82;3.63;;;7.00;99.90;;;;;;5026482;28;20053;-51
2023/01/03 08:13:16;;;;;;;8.38;3.75;;;7.00;99.90;;;;;;5027038;28;19924;-54
2023/01/03 08:15:44;;;;;;;;;;;7.00;99.90;;;;;;5032232;28;20076;-57
2023/01/03 08:18:12;;;;;;;6.60;4.22;;;7.00;99.90;;;;;;5014334;28;20560;-53
2023/01/03 08:20:39;;;;;;;6.38;3.92;;;7.00;99.90;;;;;;5029932;28;20091;-52
2023/01/03 08:23:06;;;;;;;5.25;3.83;;;7.00;99.90;;;;;;5031370;28;20049;-51
2023/01/03 08:25:32;;;;;;;;;;;7.00;99.90;;;;;;5033219;28;20064;-51
2023/01/03 08:28:00;;;;;;;7.28;3.72;;;7.00;99.90;;;;;;5028472;28;19932;-62
2023/01/03 08:30:27;;;;;;;5.55;4.13;;;7.00;99.90;;;;;;5025860;28;20059;-51
2023/01/03 08:32:57;;;;;;;8.73;4.90;;;7.00;99.90;;;;;;5028807;28;20048;-52
2023/01/03 08:35:27;;;;;;;6.80;4.57;;;7.00;99.90;;;;;;5028142;28;20045;-52
2023/01/03 08:37:54;;;;;;;11.00;4.82;;;7.00;99.90;;;;;;5031159;28;20045;-53
2023/01/03 08:40:21;;;;;;;5.45;4.03;;;7.00;99.90;;;;;;5032735;28;20055;-52
2023/01/03 08:42:48;;;;;;;;;;;7.00;99.90;;;;;;5011031;28;20377;-49
2023/01/03 08:45:16;;;;;;;3.00;2.42;;;7.00;99.90;;;;;;5028463;28;19939;-50
2023/01/03 08:47:44;;;;;;;4.55;3.70;;;7.00;99.90;;;;;;5005735;28;20383;-48
2023/01/03 08:50:11;;;;;;;4.03;3.55;;;7.00;99.90;;;;;;5025328;28;20812;-51
2023/01/03 08:52:38;;;;;;;6.72;4.68;;;7.00;99.90;;;;;;5029123;28;20406;-53
2023/01/03 08:55:05;;;;;;;;;;;7.00;99.90;;;;;;5030119;28;20044;-52
2023/01/03 08:57:32;;;;;;;8.68;5.18;;;7.00;99.90;;;;;;5030895;28;19924;-55
2023/01/03 08:59:58;;;;;;;;;;;7.00;99.90;;;;;;5031255;28;20453;-52
2023/01/03 09:02:25;;;;;;;7.38;4.82;;;7.00;99.90;;;;;;5028877;28;20029;-52
2023/01/03 09:04:52;;;;;;;6.72;5.38;;;7.00;99.90;;;;;;5028761;28;20049;-52
2023/01/03 09:07:19;;;;;;;;;;;7.00;99.90;;;;;;5031503;28;20825;-50
2023/01/03 09:09:46;;;;;;;5.07;4.47;;;7.00;99.90;;;;;;5029662;28;19928;-52
2023/01/03 09:12:12;;;;;;;6.97;5.45;;;7.00;99.90;;;;;;5028221;28;20048;-49
2023/01/03 09:14:39;;;;;;;9.93;5.38;;;7.00;99.90;;;;;;5026330;28;20040;-52
2023/01/03 09:17:06;;;;;;;6.20;4.68;;;7.10;99.90;;;;;;5028072;28;20041;-52
2023/01/03 09:19:33;;;;;;;6.72;4.63;;;7.00;99.90;;;;;;5028943;28;20627;-50
2023/01/03 09:22:00;;;;;;;;;;;7.10;99.90;;;;;;5028789;28;20787;-56
2023/01/03 09:24:26;;;;;;;6.05;4.60;;;7.10;99.90;;;;;;5027218;28;19962;-50
2023/01/03 09:26:53;;;;;;;4.93;4.03;;;7.10;99.90;;;;;;5031379;28;20604;-50
2023/01/03 09:29:21;;;;;;;5.65;4.63;;;7.10;99.90;;;;;;5026743;28;20143;-51
2023/01/03 09:31:47;;;;;;;5.80;4.32;;;7.20;99.90;;;;;;5029860;28;20068;-50
2023/01/03 09:34:17;;;;;;;9.85;5.93;;;7.20;99.90;;;;;;5029372;28;20048;-52
2023/01/03 09:36:44;;;;;;;;;;;7.20;99.90;;;;;;5015108;28;20047;-53
2023/01/03 09:39:10;;;;;;;10.13;5.40;;;7.20;99.90;;;;;;5033470;28;20600;-53
2023/01/03 09:41:38;;;;;;;;;;;7.20;99.90;;;;;;5031001;28;20321;-52
2023/01/03 09:44:09;;;;;;;7.10;5.05;;;7.20;99.90;;;;;;5028577;28;20015;-53
2023/01/03 09:46:36;;;;;;;5.53;4.32;;;7.20;99.90;;;;;;5013631;28;20064;-53
2023/01/03 09:49:05;;;;;;;8.85;4.85;;;7.20;99.90;;;;;;5028950;28;20382;-53
2023/01/03 10:03:44;;;;;;;8.10;5.50;;;7.20;99.90;;;;;;5024185;28;21201;-53
2023/01/03 10:06:28;;;;;;;8.80;6.18;;;7.20;99.90;;;;;;5031191;28;20091;-53
2023/01/03 10:09:17;;;;;;;10.60;7.03;;;7.20;99.90;;;;;;5029100;28;20048;-54
2023/01/03 10:11:58;;;;;;;12.95;7.80;;;7.20;99.90;;;;;;5029794;28;20494;-52
2023/01/03 10:14:51;;;;;;;7.75;5.78;;;7.30;99.90;;;;;;5027045;28;20048;-53
2023/01/03 10:17:32;;;;;;;6.07;4.80;;;7.30;99.90;;;;;;5027128;28;20095;-53
2023/01/03 10:20:26;;;;;;;4.18;3.55;;;7.40;99.90;;;;;;5026945;28;20653;-53
2023/01/03 10:22:59;;;;;;;5.40;4.78;;;7.40;99.90;;;;;;5028733;28;20047;-53
2023/01/03 10:25:29;;;;;;;10.73;4.80;;;7.50;99.90;;;;;;5026546;28;20067;-54
2023/01/03 10:28:12;;;;;;;8.90;4.32;;;7.50;99.90;;;;;;5026281;28;20217;-53
2023/01/03 10:31:07;;;;;;;4.40;3.63;;;7.50;99.90;;;;;;5026366;28;20520;-51
2023/01/03 10:33:44;;;;;;;4.95;3.60;;;7.50;99.90;;;;;;5026267;28;20074;-53
2023/01/03 10:36:12;;;;;;;4.70;2.88;;;7.50;99.90;;;;;;5029983;28;20037;-50
2023/01/03 10:38:39;;;;;;;2.80;2.55;;;7.60;99.90;;;;;;5029068;28;20049;-53
2023/01/03 10:41:40;;;;;;;4.60;3.63;;;7.60;99.90;;;;;;5028972;28;20123;-52
2023/01/03 10:44:38;;;;;;;6.65;3.95;;;7.60;99.90;;;;;;5026855;28;20940;-51
2023/01/03 10:47:14;;;;;;;3.42;2.95;;;7.70;99.90;;;;;;5027428;28;20047;-51
2023/01/03 10:49:43;;;;;;;3.33;2.97;;;7.70;99.90;;;;;;5029027;28;20048;-52
2023/01/03 10:52:18;;;;;;;5.32;3.63;;;7.80;99.90;;;;;;5026984;28;20113;-55
2023/01/03 10:54:48;;;;;;;4.80;3.45;;;7.80;99.90;;;;;;5025435;28;20161;-53
2023/01/03 10:57:42;;;;;;;4.07;3.67;;;7.80;99.90;;;;;;5024511;28;20092;-52
2023/01/03 11:00:34;;;;;;;8.32;3.65;;;7.90;99.90;;;;;;5015015;28;20049;-52
2023/01/03 11:03:19;;;;;;;5.93;3.80;;;7.90;99.90;;;;;;5002422;28;20426;-52
2023/01/03 11:06:08;;;;;;;5.70;4.30;;;7.90;99.90;;;;;;5006785;28;20045;-52
2023/01/03 11:08:37;;;;;;;5.60;4.20;;;8.00;99.90;;;;;;5005209;28;20049;-52
2023/01/03 11:11:24;;;;;;;5.32;3.58;;;7.90;99.90;;;;;;5006218;28;20049;-50
2023/01/03 11:13:51;;;;;;;4.60;3.80;;;8.00;99.90;;;;;;5007198;28;20673;-50
2023/01/03 11:16:18;;;;;;;;;;;7.90;99.90;;;;;;5005399;28;20045;-51
2023/01/03 11:19:00;;;;;;;4.30;3.80;;;8.00;99.90;;;;;;5005631;28;19925;-53
2023/01/03 11:22:03;;;;;;;5.20;4.32;;;7.90;99.90;;;;;;4975472;28;20870;-53
2023/01/03 11:24:49;;;;;;;5.07;3.55;;;7.90;99.90;;;;;;4994265;28;20041;-52
2023/01/03 11:27:33;;;;;;;5.43;3.47;;;7.90;99.90;;;;;;5008330;28;20162;-52
2023/01/03 11:30:32;;;;;;;4.90;3.10;;;8.00;99.90;;;;;;4988906;28;20525;-49
2023/01/03 11:33:37;;;;;;;7.00;4.28;;;8.00;99.90;;;;;;5007333;28;20053;-51
2023/01/03 11:36:43;;;;;;;5.43;2.92;;;8.00;99.90;;;;;;5007243;28;20037;-49
2023/01/03 11:39:38;;;;;;;4.68;2.30;;;8.00;99.90;;;;;;5006235;28;20076;-51
2023/01/03 11:42:43;;;;;;;2.63;1.85;;;8.00;99.90;;;;;;5008990;28;20048;-54
2023/01/03 11:45:37;;;;;;;3.22;1.75;;;8.00;99.90;;;;;;4981828;28;20064;-53
2023/01/03 11:48:49;;;;;;;2.95;2.10;;;8.00;99.90;;;;;;5009858;28;20817;-52
2023/01/03 11:51:27;;;;;;;3.58;2.22;;;8.00;99.90;;;;;;5012150;28;20053;-51
2023/01/03 11:54:04;;;;;;;3.08;2.10;;;8.00;99.90;;;;;;5009844;28;20048;-48
2023/01/03 11:56:38;;;;;;;4.30;2.17;;;8.00;99.90;;;;;;5012972;28;20050;-48
2023/01/03 11:59:39;;;;;;;1.58;1.48;;;8.00;99.90;;;;;;5009574;28;20041;-49
2023/01/03 12:02:40;;;;;;;1.58;1.42;;;8.10;99.90;;;;;;5012738;28;20056;-49
2023/01/03 12:05:19;;;;;;;1.30;1.20;;;8.10;99.90;;;;;;5009209;28;20158;-48
2023/01/03 12:08:10;;;;;;;2.42;0.90;;;8.10;99.90;;;;;;5011912;28;20049;-52
2023/01/03 12:10:56;;;;;;;1.45;0.90;;;8.10;99.90;;;;;;5009491;28;20056;-51
2023/01/03 12:13:32;;;;;;;0.70;0.70;;;8.10;99.90;;;;;;4995142;28;20211;-52
2023/01/03 12:16:15;;;;;;;0.70;0.70;;;8.10;99.90;;;;;;5008903;28;20474;-51
2023/01/03 12:19:05;;;;;;;1.10;1.00;;;8.10;99.90;;;;;;5007238;28;20045;-52
2023/01/03 12:21:43;;;;;;;1.35;1.00;;;8.10;99.90;;;;;;5012766;28;20048;-52
2023/01/03 12:24:35;;;;;;;1.50;1.10;;;8.10;99.90;;;;;;5010163;28;20049;-51
2023/01/03 12:27:35;;;;;;;1.48;1.38;;;8.10;99.90;;;;;;5010927;28;20096;-51
2023/01/03 12:30:13;;;;;;;4.05;1.80;;;8.20;99.90;;;;;;5006888;28;20069;-52
2023/01/03 12:32:44;;;;;;;;;;;8.10;99.90;;;;;;4976734;28;20042;-51
2023/01/03 12:35:23;;;;;;;1.83;1.67;;;8.20;99.90;;;;;;5009084;28;20661;-52
2023/01/03 12:37:50;;;;;;;2.58;2.00;;;8.20;99.90;;;;;;5011007;28;20049;-51
2023/01/03 12:40:51;;;;;;;3.78;1.92;;;8.10;99.90;;;;;;5010300;28;20664;-50
2023/01/03 12:43:45;;;;;;;4.25;2.70;;;8.10;99.90;;;;;;5011412;28;20053;-52
2023/01/03 12:46:20;;;;;;;3.17;2.10;;;8.10;99.90;;;;;;5005131;28;20053;-49
2023/01/03 12:49:10;;;;;;;2.40;2.00;;;8.00;99.90;;;;;;5007398;28;20698;-51
2023/01/03 12:51:37;;;;;;;3.22;2.50;;;8.00;99.90;;;;;;5009096;28;20507;-51
2023/01/03 12:54:13;;;;;;;;;;;8.00;99.90;;;;;;5007919;28;20045;-53
2023/01/03 12:56:52;;;;;;;2.50;2.20;;;8.00;99.90;;;;;;5008583;28;19924;-51
2023/01/03 12:59:53;;;;;;;2.90;2.25;;;8.00;99.90;;;;;;5006900;28;20041;-53
2023/01/03 13:02:31;;;;;;;2.20;1.42;;;8.00;99.90;;;;;;5006285;28;20048;-50
2023/01/03 13:05:12;;;;;;;1.45;1.35;;;8.00;99.90;;;;;;5011749;28;20060;-51
2023/01/03 13:07:43;;;;;;;3.17;1.83;;;8.00;99.90;;;;;;5008953;28;20041;-53
2023/01/03 13:10:16;;;;;;;1.83;1.65;;;8.00;99.90;;;;;;5008723;28;20107;-50
2023/01/03 13:12:49;;;;;;;4.93;1.80;;;8.00;99.90;;;;;;4995581;28;20111;-52
2023/01/03 13:15:26;;;;;;;1.95;1.75;;;8.00;99.90;;;;;;5013860;28;20131;-52
2023/01/03 13:18:20;;;;;;;2.65;2.15;;;7.90;99.90;;;;;;5007656;28;20049;-53
2023/01/03 13:20:51;;;;;;;3.20;1.83;;;7.90;99.90;;;;;;5010828;28;20053;-55
2023/01/03 13:23:32;;;;;;;3.65;1.90;;;8.00;99.90;;;;;;5010469;28;20057;-51
2023/01/03 13:26:24;;;;;;;5.03;2.80;;;8.00;99.90;;;;;;5008821;28;20455;-48
2023/01/03 13:29:12;;;;;;;3.53;2.03;;;8.00;99.90;;;;;;5008356;28;20628;-53
2023/01/03 13:31:39;;;;;;;3.08;1.88;;;7.90;99.90;;;;;;4995788;28;20625;-53
2023/01/03 13:34:17;;;;;;;3.75;2.85;;;7.90;99.90;;;;;;5009104;28;20053;-52
2023/01/03 13:37:06;;;;;;;5.97;3.30;;;7.90;99.90;;;;;;5010580;28;20527;-54
2023/01/03 13:39:37;;;;;;;8.63;4.32;;;7.90;99.90;;;;;;5007664;28;20077;-55
2023/01/03 13:42:04;;;;;;;4.05;3.50;;;7.90;99.90;;;;;;4993176;28;20061;-54
2023/01/03 13:44:31;;;;;;;4.30;3.70;;;7.80;99.90;;;;;;5007040;28;20080;-54
2023/01/03 13:46:58;;;;;;;;;;;7.80;99.90;;;;;;5010620;28;20053;-53
2023/01/03 13:49:27;;;;;;;3.80;3.40;;;7.80;99.90;;;;;;5011519;28;19952;-52
2023/01/03 13:51:56;;;;;;;4.45;3.85;;;7.80;99.90;;;;;;5008079;28;20111;-52
2023/01/03 13:54:33;;;;;;;4.07;3.20;;;7.70;99.90;;;;;;5008928;28;20111;-54
2023/01/03 13:57:03;;;;;;;4.25;3.65;;;7.70;99.90;;;;;;5006286;28;20138;-54
2023/01/03 13:59:41;;;;;;;3.53;3.03;;;7.70;99.90;;;;;;5009438;28;20048;-52
2023/01/03 14:02:08;;;;;;;2.88;2.63;;;7.70;99.90;;;;;;5009084;28;20052;-54
2023/01/03 14:04:47;;;;;;;3.30;2.55;;;7.60;99.90;;;;;;5010464;28;20048;-56
2023/01/03 14:07:45;;;;;;;3.15;2.60;;;7.60;99.90;;;;;;5007829;28;20076;-52
2023/01/03 14:10:50;;;;;;;3.13;2.33;;;7.60;99.90;;;;;;5009789;28;20048;-52
2023/01/03 14:13:35;;;;;;;2.65;2.45;;;7.60;99.90;;;;;;5005637;28;20297;-50
2023/01/03 14:16:41;;;;;;;1.67;1.58;;;7.60;99.90;;;;;;5010354;28;20519;-51
2023/01/03 14:19:29;;;;;;;1.92;1.30;;;7.60;99.90;;;;;;4990488;28;20122;-52
2023/01/03 14:22:13;;;;;;;;;;;7.60;99.90;;;;;;5006864;28;20029;-51
2023/01/03 14:24:57;;;;;;;1.95;1.33;;;7.50;99.90;;;;;;5007405;28;19929;-52
2023/01/03 14:27:34;;;;;;;1.88;1.58;;;7.50;99.90;;;;;;5003242;28;20784;-52
2023/01/03 14:30:01;;;;;;;2.42;1.80;;;7.40;99.90;;;;;;5007259;28;20052;-53
2023/01/03 14:32:29;;;;;;;;;;;7.40;99.90;;;;;;5008972;28;20824;-53
2023/01/03 14:35:02;;;;;;;2.65;1.60;;;7.30;99.90;;;;;;5007537;28;19932;-53
2023/01/03 14:37:31;;;;;;;2.08;1.70;;;7.20;99.90;;;;;;5007527;28;20055;-52
2023/01/03 14:39:59;;;;;;;1.90;1.75;;;7.20;99.90;;;;;;5005795;28;20045;-52